createdAt,value
2019-04-23T00:02:30.120Z,53.92
2019-04-23T00:04:59.546Z,53.99
2019-04-23T00:07:41.485Z,54.25
2019-04-23T00:10:12.074Z,54.25
2019-04-23T00:15:17.091Z,54.98
2019-04-23T00:17:52.061Z,54.49
2019-04-23T00:20:23.558Z,54.49
2019-04-23T00:23:06.111Z,54.82
2019-04-23T00:25:51.039Z,55.21
2019-04-23T00:28:20.448Z,55.75
2019-04-23T00:30:58.229Z,55.46
2019-04-23T00:33:25.043Z,55.46
2019-04-23T00:36:15.543Z,56.58
2019-04-23T00:38:34.966Z,56.53
2019-04-23T00:41:02.973Z,56.53
2019-04-23T00:43:37.781Z,56.84
2019-04-23T00:46:06.303Z,56.77
2019-04-23T00:51:03.413Z,57.24
2019-04-23T00:53:38.885Z,57.24
2019-04-23T00:56:32.165Z,57.14
2019-04-23T00:58:51.095Z,57.21
2019-04-23T01:01:26.931Z,57.21
2019-04-23T01:03:53.054Z,57.54
2019-04-23T01:06:23.612Z,57.66
2019-04-23T01:09:00.062Z,57.71
2019-04-23T01:11:23.969Z,57.71
2019-04-23T01:14:01.027Z,58.21
2019-04-23T01:19:20.637Z,58.70
2019-04-23T01:21:32.624Z,58.47
2019-04-23T01:24:25.125Z,58.47
2019-04-23T01:27:51.549Z,58.85
2019-04-23T01:30:26.642Z,59.03
2019-04-23T01:33:15.408Z,59.68
2019-04-23T01:35:30.012Z,59.68
2019-04-23T01:38:02.482Z,59.39
2019-04-23T01:40:36.600Z,59.43
2019-04-23T01:43:10.800Z,59.54
2019-04-23T01:45:35.891Z,59.65
2019-04-23T01:48:13.654Z,59.71
2019-04-23T01:53:28.785Z,59.85
2019-04-23T02:01:01.227Z,59.91
2019-04-23T02:03:34.832Z,60.20
2019-04-23T02:06:06.835Z,60.01
2019-04-23T02:08:40.493Z,60.07
2019-04-23T02:11:25.341Z,60.07
2019-04-23T02:13:49.129Z,60.69
2019-04-23T02:16:19.281Z,60.70
2019-04-23T02:19:03.704Z,60.71
2019-04-23T02:21:22.517Z,60.79
2019-04-23T02:23:58.376Z,60.93
2019-04-23T02:26:33.950Z,61.15
2019-04-23T02:29:14.645Z,61.17
2019-04-23T02:34:47.172Z,61.47
2019-04-23T02:39:32.862Z,62.10
2019-04-23T02:42:04.795Z,62.33
2019-04-23T02:44:34.961Z,62.33
2019-04-23T02:52:16.243Z,63.01
2019-04-23T02:54:51.075Z,63.11
2019-04-23T02:57:18.634Z,63.23
2019-04-23T03:00:07.991Z,63.52
2019-04-23T03:02:45.163Z,63.45
2019-04-23T03:10:02.892Z,63.72
2019-04-23T03:12:37.734Z,63.92
2019-04-23T03:21:24.461Z,64.39
2019-04-23T03:23:52.076Z,64.39
2019-04-23T03:28:57.622Z,64.40
2019-04-23T03:35:08.856Z,64.96
2019-04-23T03:37:04.088Z,65.00
2019-04-23T03:38:54.368Z,65.21
2019-04-23T03:43:51.973Z,65.69
2019-04-23T03:49:09.794Z,65.66
2019-04-23T03:51:42.897Z,66.12
2019-04-23T03:59:26.580Z,66.19
2019-04-23T04:09:34.762Z,66.23
2019-04-23T04:12:00.901Z,66.15
2019-04-23T04:22:23.028Z,66.00
2019-04-23T04:24:41.619Z,66.08
2019-04-23T04:32:11.772Z,66.13
2019-04-23T04:40:12.305Z,65.71
2019-04-23T04:42:15.186Z,65.93
2019-04-23T04:45:14.305Z,65.81
2019-04-23T04:52:43.953Z,66.22
2019-04-23T04:55:02.967Z,65.83
2019-04-23T05:00:13.240Z,65.54
2019-04-23T05:02:53.188Z,65.54
2019-04-23T05:05:35.286Z,65.22
2019-04-23T05:07:39.894Z,65.17
2019-04-23T05:10:29.909Z,64.87
2019-04-23T05:13:11.784Z,65.08
2019-04-23T05:15:17.162Z,65.08
2019-04-23T05:18:23.264Z,64.64
2019-04-23T05:25:39.583Z,64.51
2019-04-23T05:28:12.559Z,64.49
2019-04-23T05:30:52.084Z,64.39
2019-04-23T05:38:35.841Z,64.23
2019-04-23T05:41:03.898Z,64.20
2019-04-23T05:43:29.641Z,64.06
2019-04-23T05:46:04.429Z,63.94
2019-04-23T05:48:35.218Z,63.97
2019-04-23T05:53:43.660Z,63.34
2019-04-23T05:56:07.688Z,63.12
2019-04-23T05:58:43.728Z,62.93
2019-04-23T06:04:12.938Z,62.90
2019-04-23T06:09:12.657Z,62.66
2019-04-23T06:14:11.392Z,62.11
2019-04-23T06:16:41.202Z,62.00
2019-04-23T06:19:22.753Z,61.95
2019-04-23T06:22:12.586Z,61.49
2019-04-23T06:27:01.677Z,60.97
2019-04-23T06:29:35.725Z,60.64
2019-04-23T06:32:04.661Z,60.71
2019-04-23T06:37:09.714Z,60.34
2019-04-23T06:39:42.842Z,60.09
2019-04-23T06:42:11.632Z,59.85
2019-04-23T06:44:52.052Z,59.79
2019-04-23T06:47:20.189Z,59.77
2019-04-23T06:49:56.002Z,59.36
2019-04-23T06:52:21.716Z,59.02
2019-04-23T06:57:27.088Z,58.46
2019-04-23T06:59:59.276Z,58.13
2019-04-23T07:02:33.803Z,58.24
2019-04-23T07:05:11.337Z,57.66
2019-04-23T07:10:11.535Z,57.12
2019-04-23T07:12:52.305Z,56.98
2019-04-23T07:15:30.816Z,56.60
2019-04-23T07:17:48.100Z,56.08
2019-04-23T07:20:21.674Z,55.98
2019-04-23T07:23:00.755Z,55.81
2019-04-23T07:25:48.533Z,55.53
2019-04-23T07:28:06.942Z,55.41
2019-04-23T07:30:35.832Z,55.01
2019-04-23T07:33:12.028Z,54.38
2019-04-23T07:35:45.264Z,54.19
2019-04-23T07:38:56.370Z,53.81
2019-04-23T07:41:43.280Z,53.59
2019-04-23T07:44:28.203Z,53.31
2019-04-23T07:49:59.185Z,53.01
2019-04-23T07:52:20.153Z,52.68
2019-04-23T07:54:58.684Z,52.89
2019-04-23T07:57:41.936Z,52.84
2019-04-23T08:00:02.576Z,52.61
2019-04-23T08:02:37.981Z,52.03
2019-04-23T08:07:42.295Z,51.78
2019-04-23T08:10:14.009Z,51.57
2019-04-23T08:12:45.124Z,51.24
2019-04-23T08:15:23.165Z,51.05
2019-04-23T08:18:04.811Z,50.69
2019-04-23T08:20:47.427Z,50.78
2019-04-23T08:23:12.628Z,50.61
2019-04-23T08:26:26.773Z,50.63
2019-04-23T08:28:59.573Z,50.66
2019-04-23T08:31:35.025Z,50.57
2019-04-23T08:34:08.538Z,50.49
2019-04-23T08:36:37.553Z,50.46
2019-04-23T08:39:05.455Z,50.33
2019-04-23T08:41:46.565Z,50.13
2019-04-23T08:44:25.440Z,49.99
2019-04-23T08:47:06.869Z,49.76
2019-04-23T08:49:36.137Z,49.56
2019-04-23T08:52:10.503Z,49.76
2019-04-23T08:57:08.713Z,49.24
2019-04-23T08:59:45.197Z,48.94
2019-04-23T09:04:54.168Z,48.89
2019-04-23T09:10:09.712Z,48.40
2019-04-23T09:12:55.263Z,48.94
2019-04-23T09:15:18.751Z,48.47
2019-04-23T09:17:49.869Z,48.86
2019-04-23T09:20:23.460Z,48.26
2019-04-23T09:22:50.340Z,48.53
2019-04-23T09:25:37.648Z,48.33
2019-04-23T09:28:09.572Z,48.22
2019-04-23T09:30:42.805Z,48.02
2019-04-23T09:36:27.487Z,47.84
2019-04-23T09:42:04.034Z,47.34
2019-04-23T09:44:58.099Z,47.51
2019-04-23T09:47:50.422Z,44.57
2019-04-23T09:53:01.368Z,43.86
2019-04-23T09:55:32.422Z,43.75
2019-04-23T09:58:03.257Z,43.41
2019-04-23T10:02:59.597Z,42.78
2019-04-23T10:05:31.044Z,42.66
2019-04-23T10:08:01.653Z,42.55
2019-04-23T10:10:23.257Z,42.71
2019-04-23T10:12:53.988Z,42.59
2019-04-23T10:15:30.446Z,42.69
2019-04-23T10:17:58.298Z,42.87
2019-04-23T10:20:29.031Z,42.62
2019-04-23T10:23:00.203Z,42.05
2019-04-23T10:25:31.948Z,41.86
2019-04-23T10:28:15.192Z,42.04
2019-04-23T10:30:47.147Z,41.92
2019-04-23T10:33:21.281Z,42.06
2019-04-23T10:36:00.345Z,41.88
2019-04-23T10:38:30.709Z,41.89
2019-04-23T10:41:04.498Z,41.68
2019-04-23T10:43:38.772Z,41.33
2019-04-23T10:46:47.123Z,40.78
2019-04-23T10:50:00.273Z,40.80
2019-04-23T10:54:45.703Z,40.83
2019-04-23T10:57:21.173Z,40.91
2019-04-23T10:59:55.167Z,40.36
2019-04-23T11:02:39.046Z,40.37
2019-04-23T11:07:51.388Z,40.10
2019-04-23T11:13:10.595Z,39.71
2019-04-23T11:15:47.254Z,39.80
2019-04-23T11:18:07.230Z,39.60
2019-04-23T11:20:41.561Z,40.07
2019-04-23T11:23:07.668Z,39.68
2019-04-23T11:25:55.695Z,39.71
2019-04-23T11:28:20.966Z,39.77
2019-04-23T11:30:54.852Z,39.49
2019-04-23T11:33:30.446Z,39.66
2019-04-23T11:38:48.870Z,39.63
2019-04-23T11:41:09.647Z,39.46
2019-04-23T11:43:44.330Z,39.44
2019-04-23T11:56:35.547Z,38.91
2019-04-23T11:58:52.490Z,39.02
2019-04-23T12:01:52.555Z,39.01
2019-04-23T12:04:49.900Z,39.45
2019-04-23T12:07:39.845Z,39.80
2019-04-23T12:10:29.971Z,39.37
2019-04-23T12:12:55.557Z,39.06
2019-04-23T12:18:05.298Z,38.83
2019-04-23T12:20:37.921Z,38.79
2019-04-23T12:23:28.131Z,38.65
2019-04-23T12:25:49.882Z,38.33
2019-04-23T12:28:20.649Z,37.91
2019-04-23T12:30:50.330Z,37.65
2019-04-23T12:36:34.014Z,37.20
2019-04-23T12:38:55.238Z,37.03
2019-04-23T12:41:29.872Z,37.04
2019-04-23T12:44:02.742Z,37.34
2019-04-23T12:46:38.393Z,37.34
2019-04-23T12:49:28.366Z,37.24
2019-04-23T12:54:21.552Z,36.82
2019-04-23T12:56:57.385Z,37.24
2019-04-23T12:59:36.694Z,37.08
2019-04-23T13:02:15.988Z,36.75
2019-04-23T13:04:48.731Z,36.55
2019-04-23T13:07:29.288Z,36.64
2019-04-23T13:10:01.526Z,36.60
2019-04-23T13:15:22.970Z,35.72
2019-04-23T13:18:04.642Z,34.61
2019-04-23T13:20:38.565Z,33.61
2019-04-23T13:26:32.059Z,33.15
2019-04-23T13:29:01.199Z,33.11
2019-04-23T13:31:39.757Z,33.02
2019-04-23T13:34:32.077Z,32.71
2019-04-23T13:37:06.696Z,32.55
2019-04-23T13:39:39.745Z,32.40
2019-04-23T13:42:26.211Z,32.48
2019-04-23T13:47:46.830Z,32.78
2019-04-23T13:55:14.480Z,32.96
2019-04-23T13:58:21.620Z,32.88
2019-04-23T14:00:58.073Z,32.81
2019-04-23T14:06:29.756Z,32.26
2019-04-23T14:11:27.601Z,32.39
2019-04-23T14:14:05.022Z,32.32
2019-04-23T14:16:44.648Z,32.42
2019-04-23T14:19:26.084Z,32.74
2019-04-23T14:21:45.901Z,32.67
2019-04-23T14:24:47.822Z,32.48
2019-04-23T14:27:10.981Z,32.62
2019-04-23T14:29:50.447Z,32.57
2019-04-23T14:32:22.538Z,32.65
2019-04-23T14:35:10.819Z,32.90
2019-04-23T14:37:45.749Z,32.90
2019-04-23T14:40:29.648Z,32.97
2019-04-23T14:53:48.208Z,32.33
2019-04-23T14:56:29.909Z,32.67
2019-04-23T15:04:14.777Z,32.33
2019-04-23T15:09:53.223Z,32.26
2019-04-23T15:12:11.968Z,32.22
2019-04-23T15:14:47.845Z,31.89
2019-04-23T15:17:13.025Z,31.63
2019-04-23T15:19:55.296Z,31.65
2019-04-23T15:25:15.329Z,30.97
2019-04-23T15:29:58.266Z,31.39
2019-04-23T15:32:53.590Z,31.75
2019-04-23T15:35:24.953Z,32.01
2019-04-23T15:40:23.313Z,33.29
2019-04-23T15:43:02.737Z,33.63
2019-04-23T15:45:28.558Z,33.77
2019-04-23T15:48:03.312Z,34.25
2019-04-23T15:50:40.099Z,34.49
2019-04-23T15:53:17.633Z,34.55
2019-04-23T15:55:49.175Z,34.66
2019-04-23T15:58:15.785Z,34.85
2019-04-23T16:01:21.183Z,34.62
2019-04-23T16:03:24.449Z,34.57
2019-04-23T16:05:59.799Z,34.43
2019-04-23T16:11:40.941Z,34.63
2019-04-23T16:16:51.506Z,34.78
2019-04-23T16:19:57.868Z,34.89
2019-04-23T16:22:19.053Z,35.09
2019-04-23T16:25:03.609Z,35.18
2019-04-23T16:27:34.841Z,35.53
2019-04-23T16:30:14.185Z,35.95
2019-04-23T16:36:01.499Z,36.65
2019-04-23T16:38:38.328Z,37.23
2019-04-23T16:40:57.314Z,37.47
2019-04-23T16:49:10.194Z,37.97
2019-04-23T16:54:16.964Z,38.19
2019-04-23T16:57:01.073Z,38.20
2019-04-23T16:59:18.439Z,38.43
2019-04-23T17:02:13.503Z,38.56
2019-04-23T17:04:38.627Z,38.53
2019-04-23T17:07:19.729Z,38.81
2019-04-23T17:10:08.225Z,38.97
2019-04-23T17:12:46.319Z,39.20
2019-04-23T17:15:22.496Z,39.89
2019-04-23T17:17:49.493Z,40.20
2019-04-23T17:20:28.873Z,40.57
2019-04-23T17:22:57.943Z,40.62
2019-04-23T17:25:37.637Z,40.89
2019-04-23T17:28:17.071Z,41.16
2019-04-23T17:30:41.832Z,41.47
2019-04-23T17:33:18.928Z,41.55
2019-04-23T17:38:49.561Z,41.74
2019-04-23T17:41:41.799Z,42.09
2019-04-23T17:44:18.188Z,42.27
2019-04-23T17:46:50.690Z,42.39
2019-04-23T17:49:15.382Z,42.39
2019-04-23T17:51:57.542Z,42.54
2019-04-23T17:57:07.508Z,43.16
2019-04-23T18:00:17.957Z,43.00
2019-04-23T18:02:49.645Z,43.22
2019-04-23T18:12:53.361Z,44.33
2019-04-23T18:15:09.596Z,44.56
2019-04-23T18:17:50.551Z,44.74
2019-04-23T18:20:37.743Z,44.74
2019-04-23T18:25:52.450Z,45.12
2019-04-23T18:28:21.982Z,45.45
2019-04-23T18:31:13.136Z,45.63
2019-04-23T18:36:08.084Z,46.31
2019-04-23T18:38:50.155Z,46.60
2019-04-23T18:41:37.869Z,46.66
2019-04-23T18:43:48.307Z,46.71
2019-04-23T18:51:21.469Z,47.14
2019-04-23T18:54:15.208Z,47.16
2019-04-23T18:56:56.131Z,47.13
2019-04-23T18:59:38.943Z,47.32
2019-04-23T19:02:07.295Z,47.40
2019-04-23T19:07:38.497Z,47.72
2019-04-23T19:10:30.617Z,48.27
2019-04-23T19:18:23.857Z,48.18
2019-04-23T19:21:08.051Z,48.33
2019-04-23T19:23:46.934Z,48.38
2019-04-23T19:26:41.672Z,48.42
2019-04-23T19:31:51.141Z,48.48
2019-04-23T19:39:26.171Z,48.57
2019-04-23T19:41:59.486Z,48.68
2019-04-23T19:47:33.308Z,48.61
2019-04-23T19:49:40.637Z,48.59
2019-04-23T19:52:48.226Z,48.99
2019-04-23T19:54:58.586Z,48.92
2019-04-23T19:57:59.994Z,49.17
2019-04-23T20:00:09.678Z,49.35
2019-04-23T20:03:13.737Z,49.47
2019-04-23T20:05:34.101Z,49.52
2019-04-23T20:08:13.201Z,49.73
2019-04-23T20:10:47.658Z,49.71
2019-04-23T20:13:23.964Z,49.69
2019-04-23T20:18:35.393Z,49.79
2019-04-23T20:26:13.656Z,50.06
2019-04-23T20:36:53.360Z,49.99
2019-04-23T20:39:32.977Z,49.93
2019-04-23T20:42:08.508Z,49.92
2019-04-23T20:44:53.488Z,50.03
2019-04-23T20:47:09.886Z,50.16
2019-04-23T20:49:44.239Z,50.34
2019-04-23T20:52:32.030Z,50.51
2019-04-23T20:57:43.790Z,50.73
2019-04-23T21:00:08.701Z,50.85
2019-04-23T21:03:18.484Z,50.79
2019-04-23T21:05:21.278Z,51.08
2019-04-23T21:10:37.202Z,51.03
2019-04-23T21:15:38.974Z,50.99
2019-04-23T21:18:15.625Z,51.33
2019-04-23T21:20:43.379Z,51.34
2019-04-23T21:25:47.721Z,51.89
2019-04-23T21:36:35.507Z,51.93
2019-04-23T21:39:38.649Z,51.96
2019-04-23T21:42:39.045Z,52.17
2019-04-23T21:45:09.077Z,52.37
2019-04-23T21:47:39.271Z,52.35
2019-04-23T21:50:11.842Z,52.58
2019-04-23T21:52:39.740Z,52.51
2019-04-23T21:55:14.835Z,52.59
2019-04-23T21:57:53.406Z,52.62
2019-04-23T22:00:07.599Z,52.67
2019-04-23T22:02:57.446Z,52.56
2019-04-23T22:08:02.562Z,52.98
2019-04-23T22:10:49.345Z,53.05
2019-04-23T22:13:22.730Z,53.25
2019-04-23T22:15:54.761Z,53.11
2019-04-23T22:18:18.264Z,53.17
2019-04-23T22:20:52.666Z,53.32
2019-04-23T22:23:21.525Z,53.34
2019-04-23T22:25:59.822Z,53.32
2019-04-23T22:28:30.173Z,53.38
2019-04-23T22:33:39.338Z,53.98
2019-04-23T22:36:09.403Z,54.05
2019-04-23T22:38:33.651Z,54.19
2019-04-23T22:41:08.619Z,54.51
2019-04-23T22:43:53.079Z,54.67
2019-04-23T22:49:20.006Z,54.57
2019-04-23T22:57:03.246Z,54.52
2019-04-23T22:59:26.597Z,54.48
2019-04-23T23:02:21.561Z,54.53
2019-04-23T23:04:41.038Z,54.70
2019-04-23T23:07:08.793Z,54.93
2019-04-23T23:09:49.129Z,55.17
2019-04-23T23:12:14.523Z,55.47
2019-04-23T23:14:54.765Z,55.57
2019-04-23T23:17:24.296Z,55.89
2019-04-23T23:20:11.079Z,56.16
2019-04-23T23:23:03.713Z,56.31
2019-04-23T23:27:57.723Z,56.80
2019-04-23T23:30:33.868Z,56.81
2019-04-23T23:35:28.374Z,56.96
2019-04-23T23:38:08.317Z,57.08
2019-04-23T23:40:36.199Z,57.06
2019-04-23T23:43:22.613Z,57.21
2019-04-23T23:48:12.787Z,57.32
2019-04-23T23:50:57.186Z,57.79
2019-04-23T23:56:05.544Z,59.14
2019-04-23T23:58:28.906Z,59.67
